Time;durP1;ratioP1;P1;durP2;ratioP2;P2;SDS_P1;SDS_P2;PMS_P1;PMS_P2;Temp;Humidity;BMP_temperature;BMP_pressure;BME280_temperature;BME280_humidity;BME280_pressure;Samples;Min_cycle;Max_cycle;Signal;HPM_P1;HPM_P2
2021/05/18 04:51:43;;;;;;;;;;;;;;;11.86;100.00;96181.84;1742831;80;20656;-68
2021/05/18 05:04:16;;;;;;;;;;;;;;;12.41;98.75;96186.58;1675580;82;20611;-65
2021/05/18 05:09:22;;;;;;;;;;;;;;;12.71;98.41;96199.68;1706441;81;38397;-67
2021/05/18 05:14:27;;;;;;;;;;;;;;;12.86;97.92;96209.91;1671485;83;20501;-65
2021/05/18 05:16:54;;;;;;;;;;;;;;;12.91;97.01;96219.55;1698093;83;20391;-66
2021/05/18 05:19:26;;;;;;;;;;;;;;;12.92;96.26;96225.07;1698200;82;21184;-66
2021/05/18 05:21:51;;;;;;;;;;;;;;;12.93;96.12;96227.95;1700189;83;20998;-65
2021/05/18 05:24:18;;;;;;;;;;;;;;;12.89;96.20;96235.66;1692166;83;20231;-65
2021/05/18 05:26:46;;;;;;;;;;;;;;;12.85;96.88;96234.70;1695355;82;20318;-62
2021/05/18 05:29:13;;;;;;;;;;;;;;;12.85;97.38;96239.20;1693377;82;20625;-63
2021/05/18 05:31:40;;;;;;;;;;;;;;;12.86;97.36;96239.45;1696127;82;21693;-69
2021/05/18 05:34:07;;;;;;;;;;;;;;;12.91;97.13;96247.23;1694398;83;20579;-63
2021/05/18 05:36:34;;;;;;;;;;;;;;;12.93;96.89;96244.31;1698668;82;20532;-64
2021/05/18 05:39:04;;;;;;;;;;;;;;;12.94;97.06;96244.56;1697652;81;20381;-62
2021/05/18 05:41:30;;;;;;;;;;;;;;;12.94;97.18;96245.34;1691147;83;20664;-64
2021/05/18 05:43:57;;;;;;;;;;;;;;;12.93;97.20;96249.05;1691293;83;21153;-65
2021/05/18 05:46:23;;;;;;;;;;;;;;;12.91;97.23;96249.34;1699704;82;20236;-65
2021/05/18 05:48:54;;;;;;;;;;;;;;;12.91;96.91;96248.02;1750228;80;20477;-67
2021/05/18 05:51:24;;;;;;;;;;;;;;;12.94;97.12;96247.20;1753705;80;20552;-67
2021/05/18 05:53:51;;;;;;;;;;;;;;;12.97;97.49;96245.30;1753042;80;20379;-64
2021/05/18 05:56:18;;;;;;;;;;;;;;;13.00;98.91;96248.11;1757036;79;21684;-62
2021/05/18 05:58:45;;;;;;;;;;;;;;;13.02;99.42;96251.23;1743255;80;20624;-65
2021/05/18 06:01:12;;;;;;;;;;;;;;;13.03;100.00;96263.89;1756039;80;20313;-61
2021/05/18 06:03:39;;;;;;;;;;;;;;;13.05;100.00;96269.09;1753952;80;20614;-59
2021/05/18 06:06:06;;;;;;;;;;;;;;;13.05;100.00;96274.91;1762359;80;20531;-61
2021/05/18 06:08:37;;;;;;;;;;;;;;;13.05;100.00;96274.91;1732910;81;21654;-62
2021/05/18 06:16:48;;;;;;;;;;;;;;;13.08;100.00;96271.69;1717120;82;20577;-63
2021/05/18 06:41:13;;;;;;;;;;;;;;;14.20;95.97;96262.73;1606092;86;20588;-62
2021/05/18 06:46:17;;;;;;;;;;;;;;;14.43;94.62;96261.63;1611986;86;20571;-69
2021/05/18 06:48:40;;;;;;;;;;;;;;;14.55;93.73;96268.22;1603181;86;20728;-65
2021/05/18 06:51:07;;;;;;;;;;;;;;;14.70;93.65;96263.81;1603453;86;20669;-65
2021/05/18 06:53:35;;;;;;;;;;;;;;;14.86;92.85;96267.59;1598742;86;20582;-66
2021/05/18 06:56:03;;;;;;;;;;;;;;;15.00;89.76;96260.84;1588158;86;20503;-62
2021/05/18 07:01:08;;;;;;;;;;;;;;;15.15;85.76;96264.38;1605308;86;21701;-62
2021/05/18 07:03:50;;;;;;;;;;;;;;;15.18;86.53;96263.23;1603485;86;20673;-65
2021/05/18 07:09:03;;;;;;;;;;;;;;;15.17;82.49;96268.28;1602293;86;20589;-64
2021/05/18 07:11:31;;;;;;;;;;;;;;;15.16;83.33;96265.39;1612092;86;20632;-66
2021/05/18 07:13:59;;;;;;;;;;;;;;;15.15;85.18;96257.76;1595215;86;21613;-60
2021/05/18 07:16:26;;;;;;;;;;;;;;;15.14;82.44;96263.59;1602828;86;20189;-67
2021/05/18 07:18:53;;;;;;;;;;;;;;;15.12;81.70;96259.18;1601791;86;20491;-64
2021/05/18 07:21:20;;;;;;;;;;;;;;;15.10;81.56;96252.63;1614783;86;20346;-64
2021/05/18 07:23:52;;;;;;;;;;;;;;;15.05;81.63;96247.49;1590323;87;20641;-67
2021/05/18 07:26:20;;;;;;;;;;;;;;;15.00;83.17;96253.69;1596067;87;20515;-65
2021/05/18 07:28:48;;;;;;;;;;;;;;;15.00;83.47;96251.05;1605520;86;20582;-67
2021/05/18 07:31:14;;;;;;;;;;;;;;;15.00;82.25;96251.05;1604674;85;20529;-67
2021/05/18 07:33:41;;;;;;;;;;;;;;;15.03;82.62;96250.98;1603287;86;20537;-68
2021/05/18 07:36:09;;;;;;;;;;;;;;;15.08;81.87;96256.12;1604614;87;20396;-63
2021/05/18 07:38:37;;;;;;;;;;;;;;;15.15;81.63;96251.92;1603821;87;21683;-67
2021/05/18 07:41:06;;;;;;;;;;;;;;;15.22;81.56;96245.63;1600138;87;20161;-65
2021/05/18 07:43:33;;;;;;;;;;;;;;;15.32;81.21;96253.81;1601922;87;20191;-66
2021/05/18 07:46:03;;;;;;;;;;;;;;;15.35;79.54;96258.47;1599725;87;20626;-63
2021/05/18 07:48:42;;;;;;;;;;;;;;;15.35;78.10;96267.73;1599097;87;20382;-64
2021/05/18 07:51:19;;;;;;;;;;;;;;;15.36;77.98;96271.16;1601657;86;21765;-66
2021/05/18 08:07:14;;;;;;;;;;;;;;;15.57;77.11;96275.56;1599405;86;20535;-64
2021/05/18 08:09:52;;;;;;;;;;;;;;;15.57;76.36;96279.53;1602065;88;20582;-66
2021/05/18 08:12:12;;;;;;;;;;;;;;;15.57;75.76;96282.18;1599932;88;20580;-64
2021/05/18 08:14:44;;;;;;;;;;;;;;;15.55;75.75;96281.73;1599581;87;20668;-65
2021/05/18 08:17:16;;;;;;;;;;;;;;;15.50;75.61;96283.70;1584342;88;21556;-64
2021/05/18 08:20:04;;;;;;;;;;;;;;;15.47;76.63;96285.12;1596313;87;20526;-66
2021/05/18 08:22:48;;;;;;;;;;;;;;;15.48;77.16;96286.69;1594011;86;20550;-64
2021/05/18 10:26:12;;;;;;;;;;;;;;;14.84;100.00;96346.46;1644377;85;20187;-66
2021/05/18 10:35:45;;;;;;;;;;;;;;;14.64;100.00;96357.58;1620645;86;21607;-64
2021/05/18 10:38:12;;;;;;;;;;;;;;;14.56;100.00;96360.42;1617082;86;20151;-62
2021/05/18 10:40:40;;;;;;;;;;;;;;;14.45;100.00;96354.62;1625831;86;20599;-63
2021/05/18 10:43:12;;;;;;;;;;;;;;;14.35;100.00;96353.52;1630578;86;20752;-66
2021/05/18 10:46:05;;;;;;;;;;;;;;;14.27;100.00;96356.88;1632169;86;20819;-66
2021/05/18 10:48:38;;;;;;;;;;;;;;;14.21;100.00;96348.06;1637229;86;22345;-61
2021/05/18 10:51:27;;;;;;;;;;;;;;;14.19;100.00;96366.10;1621257;86;20207;-60
2021/05/18 10:54:19;;;;;;;;;;;;;;;14.16;100.00;96363.51;1628251;86;20249;-62
2021/05/18 10:56:59;;;;;;;;;;;;;;;14.15;100.00;96357.20;1599606;86;20583;-65
2021/05/18 10:59:39;;;;;;;;;;;;;;;14.13;100.00;96354.06;1617841;86;20698;-62
2021/05/18 11:02:19;;;;;;;;;;;;;;;14.10;100.00;96354.15;1625259;86;20749;-63
2021/05/18 11:04:56;;;;;;;;;;;;;;;14.12;100.00;96363.09;1626196;86;20543;-66
2021/05/18 11:07:38;;;;;;;;;;;;;;;14.13;100.00;96365.95;1629005;86;20195;-68
2021/05/18 11:10:13;;;;;;;;;;;;;;;14.10;100.00;96362.61;1627022;86;20529;-66
2021/05/18 11:12:39;;;;;;;;;;;;;;;14.10;100.00;96362.08;1615308;86;20563;-65
2021/05/18 11:15:19;;;;;;;;;;;;;;;14.10;100.00;96370.00;1610050;86;21668;-66
2021/05/18 11:17:48;;;;;;;;;;;;;;;14.11;100.00;96370.78;1631671;86;20523;-68
2021/05/18 11:20:24;;;;;;;;;;;;;;;14.01;100.00;96375.75;1628148;86;20245;-63
